createdAt,value
2022-10-11T00:01:00.343Z,11.50
2022-10-11T00:02:51.047Z,11.50
2022-10-11T00:04:41.709Z,11.40
2022-10-11T00:06:32.683Z,11.50
2022-10-11T00:08:25.225Z,11.50
2022-10-11T00:10:16.138Z,11.60
2022-10-11T00:12:07.291Z,11.60
2022-10-11T00:13:57.989Z,11.60
2022-10-11T00:15:48.746Z,11.50
2022-10-11T00:17:39.180Z,11.60
2022-10-11T00:19:30.207Z,11.50
2022-10-11T00:21:21.543Z,11.50
2022-10-11T00:23:12.119Z,11.60
2022-10-11T00:25:06.226Z,11.60
2022-10-11T00:26:57.353Z,11.50
2022-10-11T00:28:48.019Z,11.60
2022-10-11T00:30:42.749Z,11.60
2022-10-11T00:32:34.785Z,11.50
2022-10-11T00:34:25.378Z,11.50
2022-10-11T00:36:16.304Z,11.50
2022-10-11T00:38:07.211Z,11.50
2022-10-11T00:39:57.967Z,11.30
2022-10-11T00:41:50.188Z,11.20
2022-10-11T00:43:42.447Z,11.30
2022-10-11T00:46:25.889Z,11.50
2022-10-11T00:48:22.794Z,11.50
2022-10-11T00:50:23.405Z,11.40
2022-10-11T00:52:19.906Z,11.10
2022-10-11T00:54:17.616Z,11.00
2022-10-11T00:56:14.865Z,11.10
2022-10-11T00:58:07.762Z,11.20
2022-10-11T00:59:59.798Z,11.20
2022-10-11T01:01:50.651Z,11.20
2022-10-11T01:03:41.753Z,11.10
2022-10-11T01:05:32.554Z,11.20
2022-10-11T01:07:23.160Z,11.20
2022-10-11T01:09:14.455Z,11.10
2022-10-11T01:11:05.787Z,11.20
2022-10-11T01:13:11.136Z,11.20
2022-10-11T01:15:14.668Z,11.10
2022-10-11T01:17:20.054Z,11.00
2022-10-11T01:19:34.687Z,11.10
2022-10-11T01:21:36.953Z,11.00
2022-10-11T01:24:13.972Z,10.90
2022-10-11T01:26:34.118Z,11.00
2022-10-11T01:28:42.809Z,10.90
2022-10-11T01:30:36.473Z,10.90
2022-10-11T01:32:35.097Z,11.00
2022-10-11T01:34:32.825Z,10.90
2022-10-11T01:36:32.380Z,10.90
2022-10-11T01:38:30.099Z,10.70
2022-10-11T01:40:26.679Z,10.60
2022-10-11T01:42:19.215Z,10.50
2022-10-11T01:44:13.036Z,10.50
2022-10-11T01:46:08.144Z,10.40
2022-10-11T01:48:07.554Z,10.50
2022-10-11T01:50:01.877Z,10.50
2022-10-11T01:51:58.081Z,10.60
2022-10-11T01:55:07.625Z,10.80
2022-10-11T01:57:13.985Z,10.90
2022-10-11T01:59:28.398Z,11.00
2022-10-11T02:01:30.606Z,10.90
2022-10-11T02:03:33.736Z,10.80
2022-10-11T02:05:35.091Z,10.90
2022-10-11T02:07:33.060Z,10.80
2022-10-11T02:09:30.785Z,10.80
2022-10-11T02:11:26.453Z,10.70
2022-10-11T02:13:25.711Z,10.60
2022-10-11T02:15:19.005Z,10.60
2022-10-11T02:17:17.825Z,10.70
2022-10-11T02:19:12.346Z,10.80
2022-10-11T02:21:07.399Z,10.80
2022-10-11T02:23:05.826Z,10.70
2022-10-11T02:25:01.524Z,10.90
2022-10-11T02:26:55.553Z,10.90
2022-10-11T02:28:49.041Z,10.90
2022-10-11T02:30:42.321Z,10.80
2022-10-11T02:32:37.968Z,10.90
2022-10-11T02:34:36.118Z,10.90
2022-10-11T02:36:36.648Z,10.90
2022-10-11T02:38:34.588Z,10.70
2022-10-11T02:40:29.442Z,10.50
2022-10-11T02:42:26.149Z,10.50
2022-10-11T02:44:24.472Z,10.50
2022-10-11T02:46:17.725Z,10.60
2022-10-11T02:48:12.237Z,10.80
2022-10-11T02:50:04.752Z,10.80
2022-10-11T02:51:55.711Z,10.80
2022-10-11T02:53:46.648Z,10.70
2022-10-11T02:55:37.675Z,10.60
2022-10-11T02:57:28.876Z,10.60
2022-10-11T02:59:19.766Z,10.50
2022-10-11T03:01:10.761Z,10.50
2022-10-11T03:03:01.764Z,10.40
2022-10-11T03:04:53.502Z,10.40
2022-10-11T03:06:44.115Z,10.60
2022-10-11T03:08:35.291Z,10.70
2022-10-11T03:10:25.896Z,10.70
2022-10-11T03:12:16.817Z,10.70
2022-10-11T03:14:08.082Z,10.70
2022-10-11T03:16:03.213Z,10.70
2022-10-11T03:17:54.472Z,10.80
2022-10-11T03:19:45.197Z,10.70
2022-10-11T03:21:37.453Z,10.70
2022-10-11T03:23:28.105Z,10.80
2022-10-11T03:25:19.037Z,10.80
2022-10-11T03:27:09.488Z,10.90
2022-10-11T03:29:00.515Z,10.80
2022-10-11T03:30:52.144Z,10.60
2022-10-11T03:32:42.859Z,10.60
2022-10-11T03:34:34.370Z,10.50
2022-10-11T03:36:25.160Z,10.40
2022-10-11T03:38:20.897Z,10.50
2022-10-11T03:40:13.330Z,10.50
2022-10-11T03:42:04.803Z,10.40
2022-10-11T03:43:55.454Z,10.60
2022-10-11T03:45:46.444Z,10.70
2022-10-11T03:47:38.844Z,10.70
2022-10-11T03:49:29.305Z,10.60
2022-10-11T03:51:19.918Z,10.50
2022-10-11T03:53:11.006Z,10.50
2022-10-11T03:55:03.874Z,10.50
2022-10-11T03:56:54.568Z,10.40
2022-10-11T03:58:45.331Z,10.30
2022-10-11T04:00:36.548Z,10.30
2022-10-11T04:02:27.514Z,10.50
2022-10-11T04:04:18.523Z,10.50
2022-10-11T04:06:09.577Z,10.60
2022-10-11T04:08:00.358Z,10.70
2022-10-11T04:09:51.687Z,10.50
2022-10-11T04:11:43.650Z,10.40
2022-10-11T04:13:34.454Z,10.20
2022-10-11T04:15:25.087Z,10.20
2022-10-11T04:17:15.972Z,10.10
2022-10-11T04:19:07.064Z,10.00
2022-10-11T04:20:57.772Z,10.00
2022-10-11T04:22:48.745Z,10.10
2022-10-11T04:24:39.631Z,10.10
2022-10-11T04:26:30.663Z,10.10
2022-10-11T04:28:22.586Z,10.10
2022-10-11T04:30:14.640Z,10.10
2022-10-11T04:32:05.539Z,10.30
2022-10-11T04:33:55.984Z,10.50
2022-10-11T04:35:46.646Z,10.60
2022-10-11T04:37:37.623Z,10.60
2022-10-11T04:39:28.119Z,10.60
2022-10-11T04:41:19.092Z,10.60
2022-10-11T04:43:09.969Z,10.40
2022-10-11T04:45:02.198Z,10.20
2022-10-11T04:46:52.813Z,10.00
2022-10-11T04:48:45.577Z,9.90
2022-10-11T04:50:36.977Z,9.90
2022-10-11T04:52:27.983Z,9.80
2022-10-11T04:54:18.696Z,9.80
2022-10-11T04:56:10.335Z,9.80
2022-10-11T04:58:01.372Z,10.00
2022-10-11T04:59:53.449Z,9.90
2022-10-11T05:01:45.365Z,9.80
2022-10-11T05:03:36.956Z,9.90
2022-10-11T05:05:27.664Z,9.90
2022-10-11T05:07:18.587Z,9.90
2022-10-11T05:09:09.677Z,9.90
2022-10-11T05:11:05.001Z,10.00
2022-10-11T05:12:55.442Z,10.00
2022-10-11T05:14:46.229Z,10.00
2022-10-11T05:16:37.088Z,10.00
2022-10-11T05:18:29.054Z,10.10
2022-10-11T05:20:20.093Z,10.20
2022-10-11T05:22:10.763Z,10.20
2022-10-11T05:24:01.713Z,10.20
2022-10-11T05:25:52.165Z,10.30
2022-10-11T05:27:43.138Z,10.30
2022-10-11T05:29:33.752Z,10.30
2022-10-11T05:31:24.538Z,10.40
2022-10-11T05:33:15.380Z,10.40
2022-10-11T05:35:08.616Z,10.30
2022-10-11T05:36:59.710Z,10.30
2022-10-11T05:38:50.290Z,10.30
2022-10-11T05:40:41.253Z,10.40
2022-10-11T05:42:31.984Z,10.40
2022-10-11T05:44:23.481Z,10.30
2022-10-11T05:46:14.148Z,10.30
2022-10-11T05:48:05.588Z,10.20
2022-10-11T05:49:56.380Z,10.20
2022-10-11T05:51:48.223Z,10.20
2022-10-11T05:53:39.164Z,10.20
2022-10-11T05:55:30.074Z,10.20
2022-10-11T05:57:20.884Z,10.10
2022-10-11T05:59:11.959Z,10.10
2022-10-11T06:01:03.071Z,10.10
2022-10-11T06:02:53.736Z,10.30
2022-10-11T06:04:44.487Z,10.30
2022-10-11T06:06:35.197Z,10.40
2022-10-11T06:08:27.458Z,10.50
2022-10-11T06:10:18.464Z,10.60
2022-10-11T06:12:09.202Z,10.60
2022-10-11T06:14:00.080Z,10.70
2022-10-11T06:15:50.984Z,10.60
2022-10-11T06:17:41.907Z,10.60
2022-10-11T06:19:32.584Z,10.70
2022-10-11T06:21:24.363Z,10.70
2022-10-11T06:23:15.144Z,10.50
2022-10-11T06:25:08.441Z,10.60
2022-10-11T06:26:58.968Z,10.70
2022-10-11T06:28:49.910Z,10.80
2022-10-11T06:30:40.688Z,10.80
2022-10-11T06:32:32.227Z,10.80
2022-10-11T06:34:23.089Z,10.60
2022-10-11T06:36:15.443Z,10.50
2022-10-11T06:38:06.607Z,10.60
2022-10-11T06:39:57.076Z,10.60
2022-10-11T06:41:49.325Z,10.40
2022-10-11T06:43:40.057Z,10.40
2022-10-11T06:45:30.954Z,10.40
2022-10-11T06:47:21.768Z,10.40
2022-10-11T06:49:12.677Z,10.40
2022-10-11T06:51:03.587Z,10.60
2022-10-11T06:52:54.248Z,10.70
2022-10-11T06:54:45.405Z,10.80
2022-10-11T06:56:36.469Z,10.80
2022-10-11T06:58:28.725Z,10.90
2022-10-11T07:00:19.617Z,10.80
2022-10-11T07:02:10.768Z,11.00
2022-10-11T07:04:01.269Z,11.20
2022-10-11T07:05:52.193Z,11.30
2022-10-11T07:07:43.221Z,11.50
2022-10-11T07:09:34.895Z,11.50
2022-10-11T07:11:28.027Z,11.60
2022-10-11T07:13:18.979Z,11.70
2022-10-11T07:15:11.370Z,11.70
2022-10-11T07:17:02.608Z,11.80
2022-10-11T07:18:59.904Z,11.80
2022-10-11T07:20:51.567Z,11.90
2022-10-11T07:22:42.308Z,11.90
2022-10-11T07:24:33.383Z,12.00
2022-10-11T07:26:24.157Z,12.10
2022-10-11T07:28:14.971Z,12.20
2022-10-11T07:30:07.572Z,12.30
2022-10-11T07:31:59.725Z,12.30
2022-10-11T07:33:50.418Z,12.40
2022-10-11T07:35:43.750Z,12.40
2022-10-11T07:37:38.027Z,12.50
2022-10-11T07:39:28.735Z,12.50
2022-10-11T07:41:20.219Z,12.60
2022-10-11T07:43:12.899Z,12.70
2022-10-11T07:45:04.524Z,12.80
2022-10-11T07:46:55.343Z,12.80
2022-10-11T07:48:47.749Z,12.80
2022-10-11T07:50:38.678Z,12.90
2022-10-11T07:52:29.220Z,13.00
2022-10-11T07:54:20.070Z,13.10
2022-10-11T07:56:16.592Z,13.10
2022-10-11T07:58:08.148Z,13.20
2022-10-11T07:59:59.376Z,13.20
2022-10-11T08:01:50.358Z,13.20
2022-10-11T08:03:41.483Z,13.30
2022-10-11T08:05:36.559Z,13.40
2022-10-11T08:07:27.582Z,13.40
2022-10-11T08:09:18.499Z,13.50
2022-10-11T08:11:09.351Z,13.60
2022-10-11T08:13:04.264Z,13.60
2022-10-11T08:14:55.893Z,13.70
2022-10-11T08:16:46.966Z,13.80
2022-10-11T08:18:37.937Z,13.80
2022-10-11T08:20:29.273Z,13.90
2022-10-11T08:22:21.675Z,14.00
2022-10-11T08:24:13.021Z,14.00
2022-10-11T08:26:05.548Z,14.00
2022-10-11T08:27:57.355Z,14.10
2022-10-11T08:29:48.196Z,14.10
2022-10-11T08:31:39.609Z,14.20
2022-10-11T08:33:32.583Z,14.30
2022-10-11T08:35:24.633Z,14.30
2022-10-11T08:37:15.846Z,14.40
2022-10-11T08:39:08.621Z,14.50
2022-10-11T08:41:01.839Z,14.50
2022-10-11T08:43:03.028Z,14.60
2022-10-11T08:45:10.442Z,14.70
2022-10-11T08:47:08.562Z,14.70
2022-10-11T08:49:01.672Z,14.70
2022-10-11T08:50:55.463Z,14.80
2022-10-11T08:52:53.015Z,14.80
2022-10-11T08:54:53.270Z,14.90
2022-10-11T08:56:45.993Z,14.90
2022-10-11T08:58:41.413Z,14.90
2022-10-11T09:00:36.012Z,14.90
2022-10-11T09:03:06.189Z,14.90
2022-10-11T09:04:53.916Z,15.00
2022-10-11T09:06:55.385Z,15.00
2022-10-11T09:09:07.047Z,15.10
2022-10-11T09:11:10.328Z,15.20
2022-10-11T09:13:17.791Z,15.30
2022-10-11T09:15:23.235Z,15.30
2022-10-11T09:17:25.762Z,15.30
2022-10-11T09:19:50.018Z,15.40
2022-10-11T09:21:49.016Z,15.50
2022-10-11T09:24:07.772Z,15.50
2022-10-11T09:26:06.277Z,15.60
2022-10-11T09:28:16.342Z,15.60
2022-10-11T09:30:15.081Z,15.60
2022-10-11T09:32:16.089Z,15.60
2022-10-11T09:34:13.514Z,15.70
2022-10-11T09:36:19.434Z,15.80
2022-10-11T09:38:26.638Z,15.80
2022-10-11T09:40:32.342Z,15.80
2022-10-11T09:42:25.714Z,15.80
2022-10-11T09:44:23.848Z,15.90
2022-10-11T09:46:23.085Z,15.80
2022-10-11T09:48:20.271Z,15.90
2022-10-11T09:50:20.300Z,16.00
2022-10-11T09:52:17.934Z,16.00
2022-10-11T09:54:09.627Z,16.20
2022-10-11T09:56:04.951Z,16.30
2022-10-11T09:57:57.799Z,16.30
2022-10-11T10:00:01.745Z,16.40
2022-10-11T10:02:22.586Z,16.40
2022-10-11T10:04:16.263Z,16.40
2022-10-11T10:06:14.998Z,16.40
2022-10-11T10:08:24.233Z,16.50
2022-10-11T10:10:34.648Z,16.60
2022-10-11T10:12:30.440Z,16.70
2022-10-11T10:14:29.346Z,16.70
2022-10-11T10:16:24.768Z,16.80
2022-10-11T10:18:22.887Z,16.80
2022-10-11T10:20:22.175Z,16.80
2022-10-11T10:22:19.344Z,16.80
2022-10-11T10:24:20.711Z,16.80
2022-10-11T10:26:16.599Z,16.90
2022-10-11T10:28:20.885Z,17.00
2022-10-11T10:30:18.361Z,17.00
2022-10-11T10:32:14.925Z,17.00
2022-10-11T10:34:16.113Z,17.00
2022-10-11T10:36:15.212Z,16.90
2022-10-11T10:38:13.965Z,16.80
2022-10-11T10:40:14.171Z,16.80
2022-10-11T10:42:13.478Z,16.70
2022-10-11T10:44:05.009Z,16.80
2022-10-11T10:46:20.979Z,16.80
2022-10-11T10:48:25.928Z,16.70
2022-10-11T10:50:23.455Z,16.70
2022-10-11T10:52:55.239Z,16.80
2022-10-11T10:54:56.361Z,16.90
2022-10-11T10:56:52.698Z,17.10
2022-10-11T10:59:03.122Z,17.10
2022-10-11T11:01:01.395Z,17.10
2022-10-11T11:03:00.810Z,17.10
2022-10-11T11:05:04.707Z,17.10
2022-10-11T11:07:03.013Z,17.00
2022-10-11T11:09:14.578Z,16.90
2022-10-11T11:11:19.208Z,16.90
2022-10-11T11:13:27.712Z,16.90
2022-10-11T11:15:32.312Z,16.90
2022-10-11T11:17:37.410Z,16.90
2022-10-11T11:19:45.542Z,17.00
2022-10-11T11:21:45.029Z,17.10
2022-10-11T11:23:48.373Z,17.10
2022-10-11T11:25:46.777Z,17.20
2022-10-11T11:27:55.954Z,17.30
2022-10-11T11:29:58.876Z,17.30
2022-10-11T11:32:08.322Z,17.30
2022-10-11T11:34:07.885Z,17.30
2022-10-11T11:36:05.867Z,17.40
2022-10-11T11:38:06.343Z,17.50
2022-10-11T11:40:03.097Z,17.50
2022-10-11T11:41:59.613Z,17.50
2022-10-11T11:44:02.313Z,17.50
2022-10-11T11:45:58.224Z,17.50
2022-10-11T11:47:56.538Z,17.50
2022-10-11T11:49:54.749Z,17.50
2022-10-11T11:51:48.418Z,17.60
2022-10-11T11:53:53.279Z,17.80
2022-10-11T11:55:50.298Z,18.00
2022-10-11T11:57:57.407Z,18.10
2022-10-11T11:59:57.731Z,18.30
2022-10-11T12:01:59.758Z,18.40
2022-10-11T12:03:56.287Z,18.40
2022-10-11T12:06:24.401Z,18.40
2022-10-11T12:08:27.930Z,18.40
2022-10-11T12:10:32.053Z,18.50
2022-10-11T12:12:32.264Z,18.60
2022-10-11T12:14:39.857Z,18.60
2022-10-11T12:16:30.849Z,18.70
2022-10-11T12:18:22.288Z,18.80
2022-10-11T12:20:21.036Z,18.90
2022-10-11T12:22:54.698Z,18.90
2022-10-11T12:25:39.347Z,18.90
2022-10-11T12:27:41.040Z,19.00
2022-10-11T12:29:47.805Z,19.00
2022-10-11T12:31:45.202Z,19.20
2022-10-11T12:33:54.453Z,19.20
2022-10-11T12:36:02.787Z,19.10
2022-10-11T12:38:13.220Z,19.00
2022-10-11T12:40:33.588Z,18.80
2022-10-11T12:42:31.800Z,18.70
2022-10-11T12:44:28.303Z,18.50
2022-10-11T12:46:58.385Z,18.40
2022-10-11T12:48:56.026Z,18.40
2022-10-11T12:51:02.960Z,18.30
2022-10-11T12:53:07.391Z,18.20
2022-10-11T12:55:25.024Z,18.10
2022-10-11T12:58:07.235Z,18.00
2022-10-11T13:00:17.708Z,17.90
2022-10-11T13:02:29.039Z,18.00
2022-10-11T13:04:26.519Z,17.90
2022-10-11T13:06:21.855Z,17.90
2022-10-11T13:08:22.417Z,18.00
2022-10-11T13:10:15.222Z,18.00
2022-10-11T13:12:09.167Z,18.00
2022-10-11T13:14:07.970Z,18.10
2022-10-11T13:16:12.215Z,18.00
2022-10-11T13:18:03.613Z,17.90
2022-10-11T13:20:01.821Z,17.90
2022-10-11T13:21:56.667Z,18.00
2022-10-11T13:23:47.941Z,18.00
2022-10-11T13:25:38.767Z,18.10
2022-10-11T13:27:29.608Z,18.10
2022-10-11T13:29:32.117Z,18.00
2022-10-11T13:31:26.062Z,18.00
2022-10-11T13:33:22.744Z,18.00
2022-10-11T13:35:23.825Z,18.20
2022-10-11T13:37:20.189Z,18.30
2022-10-11T13:39:30.966Z,18.40
2022-10-11T13:41:24.675Z,18.60
2022-10-11T13:43:16.010Z,18.60
2022-10-11T13:45:12.241Z,18.60
2022-10-11T13:47:05.370Z,18.70
2022-10-11T13:49:01.460Z,18.60
2022-10-11T13:51:11.446Z,18.70
2022-10-11T13:53:20.996Z,18.60
2022-10-11T13:55:25.123Z,18.40
2022-10-11T13:57:16.401Z,18.60
2022-10-11T13:59:18.665Z,18.60
2022-10-11T14:01:19.923Z,18.70
2022-10-11T14:03:20.962Z,18.80
2022-10-11T14:05:24.545Z,18.60
2022-10-11T14:07:25.019Z,18.60
2022-10-11T14:09:21.401Z,18.60
2022-10-11T14:11:14.171Z,18.60
2022-10-11T14:13:22.080Z,18.50
2022-10-11T14:15:26.730Z,18.50
2022-10-11T14:17:21.240Z,18.30
2022-10-11T14:19:18.609Z,18.40
2022-10-11T14:21:31.129Z,18.50
2022-10-11T14:23:22.599Z,18.50
2022-10-11T14:25:13.984Z,18.50
2022-10-11T14:27:06.909Z,18.40
2022-10-11T14:29:00.628Z,18.40
2022-10-11T14:30:52.169Z,18.30
2022-10-11T14:32:43.130Z,18.20
2022-10-11T14:34:35.450Z,18.20
2022-10-11T14:36:26.535Z,18.30
2022-10-11T14:38:17.800Z,18.30
2022-10-11T14:40:15.271Z,18.20
2022-10-11T14:42:05.837Z,18.20
2022-10-11T14:43:56.833Z,18.30
2022-10-11T14:45:48.173Z,18.30
2022-10-11T14:47:42.818Z,18.20
2022-10-11T14:49:37.331Z,18.20
2022-10-11T14:51:34.491Z,18.30
2022-10-11T14:53:25.526Z,18.20
2022-10-11T14:55:16.381Z,18.10
2022-10-11T14:57:07.553Z,18.10
2022-10-11T14:58:58.439Z,18.20
2022-10-11T15:00:49.800Z,18.20
2022-10-11T15:02:40.949Z,18.10
2022-10-11T15:04:32.212Z,18.20
2022-10-11T15:06:28.238Z,18.10
2022-10-11T15:08:19.217Z,18.10
2022-10-11T15:10:19.453Z,18.10
2022-10-11T15:12:09.924Z,18.10
2022-10-11T15:14:03.007Z,18.10
2022-10-11T15:15:54.585Z,18.10
2022-10-11T15:17:46.638Z,18.20
2022-10-11T15:19:38.076Z,18.30
2022-10-11T15:21:30.673Z,18.60
2022-10-11T15:23:22.646Z,18.70
2022-10-11T15:25:13.566Z,18.80
2022-10-11T15:27:05.372Z,19.00
2022-10-11T15:28:57.540Z,19.10
2022-10-11T15:30:49.783Z,18.90
2022-10-11T15:32:41.843Z,18.80
2022-10-11T15:34:33.349Z,18.80
2022-10-11T15:36:24.724Z,18.80
2022-10-11T15:38:21.422Z,19.00
2022-10-11T15:40:18.067Z,18.90
2022-10-11T15:42:09.314Z,19.00
2022-10-11T15:44:01.743Z,19.00
2022-10-11T15:45:52.622Z,19.00
2022-10-11T15:47:45.288Z,18.90
2022-10-11T15:49:36.446Z,18.90
2022-10-11T15:51:27.905Z,18.70
2022-10-11T15:53:23.805Z,18.70
2022-10-11T15:55:15.968Z,18.60
2022-10-11T15:57:07.662Z,18.70
2022-10-11T15:58:58.798Z,18.80
2022-10-11T16:00:52.447Z,18.70
2022-10-11T16:02:43.941Z,18.60
2022-10-11T16:04:35.020Z,18.60
2022-10-11T16:06:27.308Z,18.70
2022-10-11T16:08:20.008Z,18.80
2022-10-11T16:10:11.645Z,19.00
2022-10-11T16:12:02.854Z,18.90
2022-10-11T16:13:55.310Z,18.80
2022-10-11T16:15:47.823Z,18.80
2022-10-11T16:17:38.838Z,18.60
2022-10-11T16:19:29.947Z,18.40
2022-10-11T16:21:22.447Z,18.20
2022-10-11T16:23:14.302Z,17.80
2022-10-11T16:25:07.984Z,17.70
2022-10-11T16:26:59.088Z,17.60
2022-10-11T16:28:49.859Z,17.60
2022-10-11T16:30:42.029Z,17.50
2022-10-11T16:32:33.360Z,17.40
2022-10-11T16:34:24.530Z,17.40
2022-10-11T16:36:18.008Z,17.30
2022-10-11T16:38:09.890Z,17.20
2022-10-11T16:40:01.597Z,17.20
2022-10-11T16:41:54.091Z,16.90
2022-10-11T16:43:45.202Z,16.80
2022-10-11T16:45:37.502Z,16.60
2022-10-11T16:47:28.793Z,16.70
2022-10-11T16:49:23.781Z,16.70
2022-10-11T16:51:14.911Z,16.60
2022-10-11T16:53:06.700Z,16.70
2022-10-11T16:54:57.404Z,16.60
2022-10-11T16:56:48.819Z,16.60
2022-10-11T16:58:41.023Z,16.60
2022-10-11T17:00:31.670Z,16.50
2022-10-11T17:02:31.370Z,16.50
2022-10-11T17:04:24.088Z,16.40
2022-10-11T17:06:15.174Z,16.30
2022-10-11T17:08:06.235Z,16.30
2022-10-11T17:09:57.472Z,16.30
2022-10-11T17:11:48.433Z,16.10
2022-10-11T17:13:41.375Z,16.20
2022-10-11T17:15:32.997Z,16.30
2022-10-11T17:17:24.439Z,16.30
2022-10-11T17:19:16.080Z,16.30
2022-10-11T17:21:10.563Z,16.20
2022-10-11T17:23:01.803Z,16.20
2022-10-11T17:24:53.074Z,16.10
2022-10-11T17:26:53.423Z,16.10
2022-10-11T17:28:48.959Z,16.10
2022-10-11T17:30:44.435Z,16.00
2022-10-11T17:32:35.760Z,15.80
2022-10-11T17:34:35.258Z,15.60
2022-10-11T17:36:29.673Z,15.50
2022-10-11T17:38:20.625Z,15.60
2022-10-11T17:40:11.796Z,15.50
2022-10-11T17:42:02.316Z,15.40
2022-10-11T17:43:54.475Z,15.30
2022-10-11T17:45:55.150Z,15.40
2022-10-11T17:47:45.923Z,15.40
2022-10-11T17:49:37.108Z,15.30
2022-10-11T17:51:28.063Z,15.10
2022-10-11T17:53:18.995Z,15.00
2022-10-11T17:55:09.858Z,14.80
2022-10-11T17:57:00.368Z,14.80
2022-10-11T17:58:52.252Z,14.80
2022-10-11T18:00:44.954Z,14.90
2022-10-11T18:02:35.644Z,14.90
2022-10-11T18:04:26.536Z,14.80
2022-10-11T18:06:17.312Z,14.70
2022-10-11T18:08:08.991Z,14.80
2022-10-11T18:09:59.536Z,14.90
2022-10-11T18:11:50.798Z,14.80
2022-10-11T18:13:42.042Z,14.80
2022-10-11T18:15:33.173Z,14.80
2022-10-11T18:17:25.487Z,14.70
2022-10-11T18:19:16.167Z,14.70
2022-10-11T18:21:06.981Z,14.70
2022-10-11T18:22:57.687Z,14.70
2022-10-11T18:24:48.699Z,14.60
2022-10-11T18:26:40.050Z,14.60
2022-10-11T18:28:30.722Z,14.50
2022-10-11T18:30:21.931Z,14.50
2022-10-11T18:32:12.649Z,14.40
2022-10-11T18:34:06.439Z,14.40
2022-10-11T18:36:01.356Z,14.10
2022-10-11T18:37:57.500Z,14.00
2022-10-11T18:39:51.601Z,13.90
2022-10-11T18:41:43.785Z,13.90
2022-10-11T18:43:35.688Z,13.90
2022-10-11T18:45:30.579Z,13.90
2022-10-11T18:47:23.774Z,13.80
2022-10-11T18:49:16.084Z,13.80
2022-10-11T18:51:10.650Z,13.80
2022-10-11T18:54:59.645Z,13.60
2022-10-11T18:56:50.608Z,13.50
2022-10-11T18:58:41.760Z,13.50
2022-10-11T19:00:41.387Z,13.40
2022-10-11T19:02:32.704Z,13.30
2022-10-11T19:04:24.705Z,13.40
2022-10-11T19:06:19.095Z,13.40
2022-10-11T19:08:09.784Z,13.50
2022-10-11T19:10:00.660Z,13.60
2022-10-11T19:11:53.211Z,13.70
2022-10-11T19:13:44.005Z,13.60
2022-10-11T19:15:35.668Z,13.50
2022-10-11T19:17:26.525Z,13.40
2022-10-11T19:19:18.812Z,13.40
2022-10-11T19:21:12.101Z,13.50
2022-10-11T19:23:02.786Z,13.50
2022-10-11T19:24:53.767Z,13.50
2022-10-11T19:26:45.027Z,13.40
2022-10-11T19:28:35.923Z,13.20
2022-10-11T19:30:26.890Z,13.00
2022-10-11T19:32:17.369Z,13.00
2022-10-11T19:34:08.291Z,13.00
2022-10-11T19:36:00.448Z,13.00
2022-10-11T19:37:52.803Z,13.00
2022-10-11T19:39:44.668Z,13.10
2022-10-11T19:41:35.473Z,13.10
2022-10-11T19:43:26.031Z,12.90
2022-10-11T19:45:16.779Z,12.90
2022-10-11T19:47:07.354Z,12.90
2022-10-11T19:48:59.244Z,12.90
2022-10-11T19:50:50.084Z,12.90
2022-10-11T19:52:44.805Z,12.80
2022-10-11T19:54:36.962Z,12.80
2022-10-11T19:56:30.557Z,12.90
2022-10-11T19:58:21.157Z,12.90
2022-10-11T20:00:13.582Z,12.90
2022-10-11T20:02:04.455Z,12.80
2022-10-11T20:03:58.713Z,12.80
2022-10-11T20:05:49.504Z,12.80
2022-10-11T20:07:40.159Z,12.80
2022-10-11T20:09:31.446Z,12.80
2022-10-11T20:11:24.239Z,12.70
2022-10-11T20:13:14.965Z,12.60
2022-10-11T20:15:07.224Z,12.50
2022-10-11T20:17:00.641Z,12.50
2022-10-11T20:18:52.658Z,12.50
2022-10-11T20:20:52.647Z,12.50
2022-10-11T20:22:43.129Z,12.50
2022-10-11T20:24:34.365Z,12.50
2022-10-11T20:26:28.372Z,12.50
2022-10-11T20:28:18.926Z,12.50
2022-10-11T20:30:12.187Z,12.50
2022-10-11T20:32:03.079Z,12.50
2022-10-11T20:33:56.287Z,12.40
2022-10-11T20:35:58.086Z,12.30
2022-10-11T20:37:49.167Z,12.30
2022-10-11T20:39:40.193Z,12.30
2022-10-11T20:41:35.519Z,12.20
2022-10-11T20:43:26.830Z,12.30
2022-10-11T20:45:17.794Z,12.30
2022-10-11T20:47:08.744Z,12.20
2022-10-11T20:49:02.387Z,12.20
2022-10-11T20:50:53.252Z,12.00
2022-10-11T20:52:44.040Z,12.00
2022-10-11T20:54:34.830Z,12.10
2022-10-11T20:56:26.377Z,11.90
2022-10-11T20:58:18.815Z,11.90
2022-10-11T21:00:11.361Z,11.90
2022-10-11T21:02:01.802Z,11.90
2022-10-11T21:03:52.936Z,11.90
2022-10-11T21:05:44.190Z,11.80
2022-10-11T21:07:35.429Z,11.80
2022-10-11T21:09:26.443Z,11.70
2022-10-11T21:11:17.443Z,11.70
2022-10-11T21:13:08.132Z,11.70
2022-10-11T21:15:00.449Z,11.80
2022-10-11T21:16:51.288Z,11.80
2022-10-11T21:18:44.851Z,11.80
2022-10-11T21:20:38.263Z,11.80
2022-10-11T21:22:28.936Z,11.80
2022-10-11T21:24:19.808Z,11.70
2022-10-11T21:26:13.985Z,11.70
2022-10-11T21:28:07.495Z,11.70
2022-10-11T21:30:17.501Z,11.80
2022-10-11T21:32:12.145Z,11.80
2022-10-11T21:34:05.151Z,11.70
2022-10-11T21:35:55.958Z,11.70
2022-10-11T21:37:46.945Z,11.60
2022-10-11T21:39:37.509Z,11.70
2022-10-11T21:41:28.497Z,11.60
2022-10-11T21:43:19.008Z,11.60
2022-10-11T21:45:11.299Z,11.50
2022-10-11T21:47:07.088Z,11.50
2022-10-11T21:48:58.443Z,11.40
2022-10-11T21:50:52.968Z,11.30
2022-10-11T21:52:43.475Z,11.30
2022-10-11T21:54:34.548Z,11.30
2022-10-11T21:56:26.075Z,11.40
2022-10-11T21:58:17.278Z,11.40
2022-10-11T22:00:12.157Z,11.30
2022-10-11T22:02:05.745Z,11.30
2022-10-11T22:03:56.765Z,11.20
2022-10-11T22:05:48.321Z,11.30
2022-10-11T22:07:39.592Z,11.30
2022-10-11T22:09:30.394Z,11.20
2022-10-11T22:11:21.186Z,11.20
2022-10-11T22:13:12.377Z,11.20
2022-10-11T22:15:03.419Z,11.20
2022-10-11T22:16:56.414Z,11.30
2022-10-11T22:18:47.812Z,11.30
2022-10-11T22:20:39.984Z,11.30
2022-10-11T22:22:31.287Z,11.30
2022-10-11T22:24:22.049Z,11.20
2022-10-11T22:26:15.955Z,11.10
2022-10-11T22:28:07.631Z,11.10
2022-10-11T22:30:07.019Z,11.20
2022-10-11T22:31:59.180Z,11.30
2022-10-11T22:33:54.046Z,11.30
2022-10-11T22:35:44.730Z,11.30
2022-10-11T22:37:35.943Z,11.20
2022-10-11T22:39:26.830Z,11.20
2022-10-11T22:41:17.630Z,11.20
2022-10-11T22:43:08.199Z,11.20
2022-10-11T22:44:58.746Z,11.20
2022-10-11T22:46:49.615Z,11.20
2022-10-11T22:48:42.080Z,11.10
2022-10-11T22:50:35.547Z,11.00
2022-10-11T22:52:26.824Z,11.10
2022-10-11T22:54:17.468Z,11.10
2022-10-11T22:56:08.456Z,11.10
2022-10-11T22:57:59.009Z,11.20
2022-10-11T22:59:50.072Z,11.20
2022-10-11T23:01:40.826Z,11.20
2022-10-11T23:03:31.789Z,11.20
2022-10-11T23:05:23.937Z,11.20
2022-10-11T23:07:14.526Z,11.20
2022-10-11T23:09:05.615Z,11.20
2022-10-11T23:10:56.640Z,11.10
2022-10-11T23:12:47.509Z,11.10
2022-10-11T23:14:37.949Z,11.10
2022-10-11T23:16:28.712Z,11.10
2022-10-11T23:18:19.486Z,11.10
2022-10-11T23:20:11.575Z,11.20
2022-10-11T23:22:04.064Z,11.20
2022-10-11T23:23:55.236Z,11.20
2022-10-11T23:25:46.080Z,11.20
2022-10-11T23:27:37.875Z,11.10
2022-10-11T23:29:30.694Z,11.10
2022-10-11T23:31:22.164Z,11.10
2022-10-11T23:33:12.837Z,11.20
2022-10-11T23:35:04.121Z,11.20
2022-10-11T23:36:55.396Z,11.20
2022-10-11T23:38:51.597Z,11.20
2022-10-11T23:40:42.577Z,11.20
2022-10-11T23:42:33.323Z,11.20
2022-10-11T23:44:24.213Z,11.20
2022-10-11T23:46:15.043Z,11.10
2022-10-11T23:48:06.596Z,11.10
2022-10-11T23:49:57.549Z,11.00
2022-10-11T23:51:48.569Z,11.00
2022-10-11T23:53:39.203Z,11.00
2022-10-11T23:55:31.514Z,11.00
2022-10-11T23:57:22.203Z,11.00
2022-10-11T23:59:13.139Z,11.00
